createdAt,value
2019-05-02T00:02:06.084Z,50.30
2019-05-02T00:04:35.820Z,50.30
2019-05-02T00:07:14.406Z,50.30
2019-05-02T00:09:48.848Z,50.30
2019-05-02T00:12:18.316Z,50.30
2019-05-02T00:14:48.200Z,50.30
2019-05-02T00:17:20.229Z,50.30
2019-05-02T00:19:51.389Z,50.40
2019-05-02T00:22:22.630Z,50.30
2019-05-02T00:24:52.422Z,50.30
2019-05-02T00:27:22.142Z,50.30
2019-05-02T00:29:53.791Z,50.30
2019-05-02T00:32:23.645Z,50.30
2019-05-02T00:34:53.946Z,50.30
2019-05-02T00:37:24.499Z,50.30
2019-05-02T00:39:54.915Z,50.30
2019-05-02T00:42:24.718Z,50.40
2019-05-02T00:44:54.432Z,50.30
2019-05-02T00:47:42.412Z,50.30
2019-05-02T00:50:12.563Z,50.30
2019-05-02T00:52:42.646Z,50.20
2019-05-02T00:55:12.421Z,50.30
2019-05-02T00:57:42.311Z,50.30
2019-05-02T01:00:13.492Z,50.40
2019-05-02T01:02:54.467Z,50.30
2019-05-02T01:05:24.479Z,50.30
2019-05-02T01:07:56.002Z,50.30
2019-05-02T01:10:25.882Z,50.30
2019-05-02T01:12:55.655Z,50.30
2019-05-02T01:15:25.513Z,50.30
2019-05-02T01:17:55.392Z,50.30
2019-05-02T01:20:27.412Z,50.30
2019-05-02T01:22:56.679Z,50.30
2019-05-02T01:25:26.471Z,50.30
2019-05-02T01:28:17.726Z,50.40
2019-05-02T01:31:02.670Z,50.30
2019-05-02T01:33:52.870Z,50.30
2019-05-02T01:36:28.470Z,50.30
2019-05-02T01:38:58.241Z,50.40
2019-05-02T01:41:29.188Z,50.30
2019-05-02T01:43:59.988Z,50.40
2019-05-02T01:46:30.884Z,50.50
2019-05-02T01:49:00.577Z,50.30
2019-05-02T01:51:32.078Z,50.30
2019-05-02T01:54:05.077Z,50.30
2019-05-02T01:56:38.762Z,50.20
2019-05-02T01:59:13.142Z,50.30
2019-05-02T02:01:47.965Z,50.20
2019-05-02T02:04:22.579Z,50.20
2019-05-02T02:07:37.509Z,50.20
2019-05-02T02:10:09.691Z,50.30
2019-05-02T02:13:02.189Z,50.30
2019-05-02T02:15:25.125Z,50.40
2019-05-02T02:18:02.843Z,50.30
2019-05-02T02:21:06.143Z,50.40
2019-05-02T02:23:52.570Z,50.20
2019-05-02T02:26:28.116Z,50.40
2019-05-02T02:29:07.972Z,50.30
2019-05-02T02:32:05.569Z,50.30
2019-05-02T02:34:46.731Z,50.30
2019-05-02T02:37:29.458Z,50.40
2019-05-02T02:40:04.142Z,50.30
2019-05-02T02:42:37.991Z,50.30
2019-05-02T02:45:28.634Z,50.30
2019-05-02T02:48:02.550Z,50.40
2019-05-02T02:50:42.928Z,50.40
2019-05-02T02:53:18.219Z,50.30
2019-05-02T02:56:06.400Z,50.40
2019-05-02T02:58:45.845Z,50.30
2019-05-02T03:01:20.955Z,50.40
2019-05-02T03:03:47.836Z,50.30
2019-05-02T03:06:20.695Z,50.40
2019-05-02T03:08:51.212Z,50.40
2019-05-02T03:12:04.823Z,51.10
2019-05-02T03:14:41.046Z,50.40
2019-05-02T03:17:13.018Z,50.50
2019-05-02T03:22:41.071Z,50.40
2019-05-02T03:28:17.172Z,50.40
2019-05-02T03:30:37.674Z,50.50
2019-05-02T03:33:12.727Z,50.50
2019-05-02T03:35:49.191Z,50.40
2019-05-02T03:38:31.342Z,50.50
2019-05-02T03:41:20.565Z,50.50
2019-05-02T03:44:10.868Z,50.50
2019-05-02T03:46:39.008Z,50.50
2019-05-02T03:49:34.308Z,50.50
2019-05-02T03:52:36.512Z,50.50
2019-05-02T03:55:11.843Z,50.40
2019-05-02T03:58:13.354Z,50.50
2019-05-02T04:00:41.760Z,50.40
2019-05-02T04:03:17.175Z,50.50
2019-05-02T04:05:50.091Z,50.50
2019-05-02T04:08:58.675Z,51.10
2019-05-02T04:11:38.372Z,50.50
2019-05-02T04:14:37.292Z,49.90
2019-05-02T04:17:21.739Z,50.40
2019-05-02T04:26:56.452Z,50.50
2019-05-02T04:30:10.215Z,50.40
2019-05-02T04:35:58.945Z,50.50
2019-05-02T04:38:52.889Z,50.50
2019-05-02T04:41:34.140Z,50.50
2019-05-02T04:49:52.109Z,50.40
2019-05-02T04:52:38.345Z,50.40
2019-05-02T04:55:33.341Z,50.40
2019-05-02T04:58:08.403Z,50.40
2019-05-02T05:00:39.238Z,50.40
2019-05-02T05:03:15.690Z,50.40
2019-05-02T05:05:49.823Z,50.40
2019-05-02T05:12:43.574Z,50.40
2019-05-02T05:15:38.290Z,50.40
2019-05-02T05:18:14.543Z,50.50
2019-05-02T05:24:27.971Z,50.40
2019-05-02T05:27:22.778Z,50.50
2019-05-02T05:29:58.610Z,51.10
2019-05-02T05:32:31.802Z,50.50
2019-05-02T05:35:09.085Z,50.40
2019-05-02T05:38:11.274Z,50.30
2019-05-02T05:41:52.414Z,50.40
2019-05-02T05:52:33.244Z,50.50
2019-05-02T05:55:28.018Z,50.50
2019-05-02T05:58:29.387Z,50.50
2019-05-02T06:01:02.489Z,50.50
2019-05-02T06:23:09.906Z,50.40
2019-05-02T06:33:46.512Z,50.40
2019-05-02T06:36:16.802Z,50.60
2019-05-02T06:38:47.320Z,50.50
2019-05-02T06:41:21.047Z,50.60
2019-05-02T06:43:51.519Z,50.60
2019-05-02T06:46:27.798Z,50.40
2019-05-02T06:48:54.354Z,50.90
2019-05-02T06:51:25.180Z,50.40
2019-05-02T06:53:55.959Z,50.40
2019-05-02T06:56:26.943Z,50.40
2019-05-02T06:58:57.376Z,50.50
2019-05-02T07:01:28.416Z,50.50
2019-05-02T07:03:58.304Z,50.50
2019-05-02T07:06:28.771Z,50.50
2019-05-02T07:08:59.872Z,50.50
2019-05-02T07:11:33.280Z,50.60
2019-05-02T07:14:13.131Z,50.50
2019-05-02T07:16:41.764Z,50.50
2019-05-02T07:19:49.179Z,50.60
2019-05-02T07:22:19.033Z,50.50
2019-05-02T07:24:49.713Z,50.50
2019-05-02T07:27:20.441Z,50.50
2019-05-02T07:29:57.129Z,50.90
2019-05-02T07:32:24.846Z,50.60
2019-05-02T07:34:55.404Z,50.60
2019-05-02T07:37:26.397Z,51.20
2019-05-02T07:40:16.847Z,50.70
2019-05-02T07:42:48.262Z,50.70
2019-05-02T07:45:18.655Z,50.80
2019-05-02T07:47:50.879Z,50.70
2019-05-02T07:50:21.318Z,50.70
2019-05-02T07:52:51.689Z,50.70
2019-05-02T07:55:21.970Z,50.70
2019-05-02T07:57:52.307Z,50.70
2019-05-02T08:00:22.294Z,50.50
2019-05-02T08:02:52.721Z,50.70
2019-05-02T08:05:24.758Z,50.70
2019-05-02T08:07:55.468Z,50.70
2019-05-02T08:10:25.923Z,50.70
2019-05-02T08:12:56.074Z,50.90
2019-05-02T08:15:26.224Z,50.80
2019-05-02T08:17:58.127Z,50.90
2019-05-02T08:20:27.941Z,51.00
2019-05-02T08:22:57.986Z,50.90
2019-05-02T08:25:27.774Z,50.80
2019-05-02T08:28:04.761Z,50.80
2019-05-02T08:30:41.770Z,50.80
2019-05-02T08:33:12.305Z,50.90
2019-05-02T08:35:42.482Z,51.00
2019-05-02T08:38:17.765Z,50.90
2019-05-02T08:40:47.728Z,50.90
2019-05-02T08:43:17.519Z,50.90
2019-05-02T08:45:47.437Z,50.70
2019-05-02T08:48:17.297Z,50.70
2019-05-02T08:50:47.291Z,50.70
2019-05-02T08:53:19.718Z,50.80
2019-05-02T08:55:48.757Z,50.90
2019-05-02T08:58:18.648Z,50.80
2019-05-02T09:00:48.398Z,50.80
2019-05-02T09:03:18.158Z,50.70
2019-05-02T09:05:48.163Z,50.80
2019-05-02T09:08:18.058Z,50.80
2019-05-02T09:10:47.793Z,50.80
2019-05-02T09:13:23.522Z,50.90
2019-05-02T09:15:51.249Z,50.90
2019-05-02T09:18:22.248Z,50.90
2019-05-02T09:20:56.370Z,50.90
2019-05-02T09:23:27.563Z,50.80
2019-05-02T09:25:55.387Z,51.10
2019-05-02T09:28:25.575Z,50.80
2019-05-02T09:30:57.486Z,50.80
2019-05-02T09:33:26.920Z,50.80
2019-05-02T09:35:56.862Z,50.80
2019-05-02T09:38:26.549Z,50.80
2019-05-02T09:40:56.391Z,50.70
2019-05-02T09:43:29.361Z,50.80
2019-05-02T09:45:58.300Z,50.90
2019-05-02T09:48:48.199Z,50.80
2019-05-02T09:51:18.120Z,50.70
2019-05-02T09:53:48.299Z,51.00
2019-05-02T09:56:19.002Z,50.90
2019-05-02T09:58:49.394Z,50.90
2019-05-02T10:01:35.683Z,50.80
2019-05-02T10:04:06.156Z,50.90
2019-05-02T10:06:37.711Z,50.90
2019-05-02T10:09:08.930Z,50.90
2019-05-02T10:11:38.922Z,50.90
2019-05-02T10:14:08.939Z,50.90
2019-05-02T10:16:38.894Z,50.90
2019-05-02T10:19:10.881Z,50.90
2019-05-02T10:21:42.216Z,50.90
2019-05-02T10:24:12.677Z,51.00
2019-05-02T10:26:43.224Z,51.00
2019-05-02T10:29:13.057Z,51.00
2019-05-02T10:31:43.074Z,51.00
2019-05-02T10:34:17.512Z,51.10
2019-05-02T10:36:45.405Z,51.50
2019-05-02T10:39:16.071Z,51.00
2019-05-02T10:41:47.421Z,51.00
2019-05-02T10:44:17.599Z,50.90
2019-05-02T10:46:59.390Z,50.90
2019-05-02T10:49:52.726Z,50.80
2019-05-02T10:52:29.584Z,51.10
2019-05-02T10:54:54.280Z,51.10
2019-05-02T10:57:24.914Z,51.10
2019-05-02T10:59:56.558Z,51.10
2019-05-02T11:02:54.311Z,51.10
2019-05-02T11:05:26.547Z,51.10
2019-05-02T11:08:04.724Z,51.20
2019-05-02T11:10:29.660Z,51.00
2019-05-02T11:13:18.626Z,51.10
2019-05-02T11:16:12.225Z,50.90
2019-05-02T11:18:52.969Z,51.00
2019-05-02T11:21:23.055Z,51.20
2019-05-02T11:23:52.858Z,51.20
2019-05-02T11:26:25.111Z,51.10
2019-05-02T11:28:53.984Z,51.10
2019-05-02T11:31:23.693Z,51.10
2019-05-02T11:33:53.490Z,51.00
2019-05-02T11:36:23.193Z,51.00
2019-05-02T11:39:01.498Z,51.00
2019-05-02T11:41:24.225Z,51.20
2019-05-02T11:43:55.862Z,51.10
2019-05-02T11:46:25.679Z,51.10
2019-05-02T11:48:58.532Z,51.20
2019-05-02T11:51:27.171Z,51.40
2019-05-02T11:53:59.437Z,51.40
2019-05-02T11:56:28.156Z,51.30
2019-05-02T11:58:57.823Z,51.40
2019-05-02T12:01:35.582Z,51.60
2019-05-02T12:03:59.068Z,51.60
2019-05-02T12:06:28.739Z,51.50
2019-05-02T12:08:58.518Z,51.50
2019-05-02T12:11:28.151Z,51.70
2019-05-02T12:13:57.846Z,51.50
2019-05-02T12:16:27.529Z,51.50
2019-05-02T12:19:08.711Z,51.70
2019-05-02T12:21:28.925Z,51.60
2019-05-02T12:23:58.643Z,51.60
2019-05-02T12:26:28.451Z,51.60
2019-05-02T12:28:58.151Z,51.50
2019-05-02T12:31:29.361Z,51.40
2019-05-02T12:34:02.624Z,51.40
2019-05-02T12:36:33.312Z,51.60
2019-05-02T12:39:05.830Z,51.50
2019-05-02T12:41:35.692Z,51.40
2019-05-02T12:44:05.936Z,51.40
2019-05-02T12:46:36.002Z,51.30
2019-05-02T12:49:05.868Z,51.30
2019-05-02T12:51:35.704Z,51.40
2019-05-02T12:54:05.578Z,51.30
2019-05-02T12:56:35.356Z,51.20
2019-05-02T12:59:05.236Z,51.40
2019-05-02T13:01:36.072Z,51.30
2019-05-02T13:04:22.976Z,51.30
2019-05-02T13:06:53.106Z,51.30
2019-05-02T13:09:23.674Z,51.30
2019-05-02T13:12:10.477Z,51.40
2019-05-02T13:14:42.261Z,51.30
2019-05-02T13:17:12.062Z,51.30
2019-05-02T13:19:55.375Z,51.30
2019-05-02T13:22:38.730Z,51.40
2019-05-02T13:25:12.925Z,51.30
2019-05-02T13:27:48.007Z,51.30
2019-05-02T13:30:42.960Z,51.30
2019-05-02T13:33:13.944Z,51.40
2019-05-02T13:35:47.502Z,51.40
2019-05-02T13:38:22.275Z,52.10
2019-05-02T13:40:52.108Z,51.30
2019-05-02T13:43:24.087Z,51.30
2019-05-02T13:46:13.973Z,51.30
2019-05-02T13:48:43.594Z,51.40
2019-05-02T13:51:13.388Z,51.30
2019-05-02T13:53:58.371Z,51.30
2019-05-02T13:56:47.174Z,51.80
2019-05-02T13:59:17.433Z,51.30
2019-05-02T14:01:48.992Z,51.40
2019-05-02T14:04:19.063Z,51.40
2019-05-02T14:06:48.772Z,51.30
2019-05-02T14:09:44.038Z,51.30
2019-05-02T14:12:19.129Z,51.40
2019-05-02T14:14:48.881Z,51.30
2019-05-02T14:17:19.672Z,51.30
2019-05-02T14:19:49.310Z,51.20
2019-05-02T14:22:19.078Z,51.20
2019-05-02T14:24:48.780Z,51.20
2019-05-02T14:27:18.555Z,51.20
2019-05-02T14:29:48.330Z,51.30
2019-05-02T14:32:23.364Z,51.10
2019-05-02T14:35:12.269Z,51.30
2019-05-02T14:37:42.827Z,51.70
2019-05-02T14:40:26.421Z,51.30
2019-05-02T14:42:57.782Z,51.20
2019-05-02T14:45:31.358Z,51.30
2019-05-02T14:48:17.101Z,51.20
2019-05-02T14:50:32.016Z,51.30
2019-05-02T14:53:04.663Z,51.20
2019-05-02T14:55:37.393Z,51.80
2019-05-02T14:58:07.465Z,51.70
2019-05-02T15:00:45.785Z,51.20
2019-05-02T15:03:12.944Z,51.10
2019-05-02T15:05:42.871Z,51.10
2019-05-02T15:08:12.935Z,51.30
2019-05-02T15:10:50.749Z,51.10
2019-05-02T15:13:14.645Z,51.10
2019-05-02T15:15:44.414Z,51.10
2019-05-02T15:18:17.527Z,51.40
2019-05-02T15:20:45.638Z,51.30
2019-05-02T15:23:19.574Z,51.20
2019-05-02T15:25:51.410Z,51.10
2019-05-02T15:28:22.921Z,51.10
2019-05-02T15:31:12.369Z,51.20
2019-05-02T15:33:51.726Z,51.30
2019-05-02T15:36:22.073Z,51.20
2019-05-02T15:38:52.989Z,51.40
2019-05-02T15:41:23.054Z,51.30
2019-05-02T15:43:53.056Z,51.30
2019-05-02T15:46:28.195Z,51.20
2019-05-02T15:48:57.278Z,51.30
2019-05-02T15:51:26.782Z,51.20
2019-05-02T15:54:08.180Z,51.10
2019-05-02T15:57:00.834Z,51.30
2019-05-02T15:59:37.574Z,51.20
2019-05-02T16:02:12.777Z,51.80
2019-05-02T16:04:42.546Z,51.40
2019-05-02T16:07:12.543Z,51.40
2019-05-02T16:09:42.543Z,51.50
2019-05-02T16:12:12.574Z,51.40
2019-05-02T16:14:43.867Z,51.40
2019-05-02T16:17:17.715Z,51.30
2019-05-02T16:19:53.062Z,51.30
2019-05-02T16:22:24.554Z,51.20
2019-05-02T16:24:56.663Z,51.50
2019-05-02T16:27:52.867Z,51.30
2019-05-02T16:30:24.919Z,51.30
2019-05-02T16:32:58.130Z,51.40
2019-05-02T16:35:29.754Z,51.40
2019-05-02T16:38:00.059Z,51.40
2019-05-02T16:40:32.833Z,51.50
2019-05-02T16:43:02.870Z,51.40
2019-05-02T16:45:33.845Z,51.40
2019-05-02T16:48:04.139Z,51.60
2019-05-02T16:50:36.736Z,51.50
2019-05-02T16:53:06.018Z,51.40
2019-05-02T16:55:36.106Z,51.30
2019-05-02T16:58:07.378Z,51.30
2019-05-02T17:00:42.544Z,51.40
2019-05-02T17:03:09.570Z,51.30
2019-05-02T17:05:44.350Z,51.30
2019-05-02T17:08:33.379Z,51.30
2019-05-02T17:11:34.202Z,51.30
2019-05-02T17:14:02.317Z,51.90
2019-05-02T17:16:32.694Z,51.40
2019-05-02T17:19:02.878Z,51.30
2019-05-02T17:21:52.165Z,51.30
2019-05-02T17:24:05.178Z,51.30
2019-05-02T17:26:35.368Z,51.30
2019-05-02T17:29:05.428Z,51.30
2019-05-02T17:31:35.536Z,51.30
2019-05-02T17:34:05.630Z,51.30
2019-05-02T17:36:35.521Z,51.40
2019-05-02T17:39:08.343Z,51.30
2019-05-02T17:41:42.317Z,51.40
2019-05-02T17:44:12.981Z,51.40
2019-05-02T17:46:42.911Z,51.40
2019-05-02T17:49:13.324Z,51.40
2019-05-02T17:52:05.714Z,51.40
2019-05-02T17:54:32.669Z,51.30
2019-05-02T17:57:02.701Z,51.40
2019-05-02T17:59:34.666Z,51.30
2019-05-02T18:02:06.753Z,51.30
2019-05-02T18:04:36.103Z,51.20
2019-05-02T18:07:06.025Z,51.30
2019-05-02T18:09:35.896Z,51.30
2019-05-02T18:12:07.188Z,51.20
2019-05-02T18:14:37.516Z,51.40
2019-05-02T18:17:07.438Z,51.30
2019-05-02T18:19:37.659Z,51.30
2019-05-02T18:22:21.055Z,51.30
2019-05-02T18:24:42.804Z,51.30
2019-05-02T18:27:12.906Z,51.30
2019-05-02T18:29:45.553Z,51.30
2019-05-02T18:32:17.544Z,51.20
2019-05-02T18:34:47.377Z,51.30
2019-05-02T18:37:17.603Z,51.30
2019-05-02T18:39:53.344Z,51.30
2019-05-02T18:42:21.907Z,51.30
2019-05-02T18:44:53.162Z,51.30
2019-05-02T18:47:24.660Z,51.50
2019-05-02T18:50:00.916Z,51.50
2019-05-02T18:52:36.426Z,51.40
2019-05-02T18:54:58.682Z,51.40
2019-05-02T18:57:29.654Z,51.30
2019-05-02T19:00:01.978Z,51.40
2019-05-02T19:02:35.571Z,51.40
2019-05-02T19:05:06.140Z,51.40
2019-05-02T19:07:36.363Z,51.60
2019-05-02T19:10:07.444Z,51.50
2019-05-02T19:12:37.794Z,51.40
2019-05-02T19:15:07.679Z,51.40
2019-05-02T19:17:39.142Z,51.40
2019-05-02T19:20:22.145Z,51.40
2019-05-02T19:22:56.354Z,51.40
2019-05-02T19:25:22.902Z,51.40
2019-05-02T19:28:02.845Z,51.40
2019-05-02T19:30:34.366Z,51.50
2019-05-02T19:33:07.885Z,51.50
2019-05-02T19:35:37.635Z,51.40
2019-05-02T19:38:06.812Z,51.50
2019-05-02T19:40:36.420Z,51.50
2019-05-02T19:43:07.706Z,51.40
2019-05-02T19:45:37.568Z,51.50
2019-05-02T19:48:07.489Z,51.40
2019-05-02T19:50:41.754Z,51.40
2019-05-02T19:53:15.213Z,51.60
2019-05-02T19:55:42.974Z,51.50
2019-05-02T19:58:13.007Z,51.70
2019-05-02T20:00:46.246Z,51.40
2019-05-02T20:03:21.661Z,51.50
2019-05-02T20:05:48.334Z,51.40
2019-05-02T20:08:21.184Z,51.40
2019-05-02T20:10:49.236Z,52.10
2019-05-02T20:13:27.309Z,51.50
2019-05-02T20:16:03.999Z,51.50
2019-05-02T20:18:36.679Z,51.50
2019-05-02T20:21:27.444Z,51.50
2019-05-02T20:23:53.225Z,51.40
2019-05-02T20:26:22.969Z,51.50
2019-05-02T20:28:52.893Z,51.50
2019-05-02T20:31:22.959Z,51.50
2019-05-02T20:33:54.190Z,51.50
2019-05-02T20:36:23.820Z,51.60
2019-05-02T20:38:53.444Z,51.50
2019-05-02T20:41:23.114Z,51.40
2019-05-02T20:43:52.774Z,51.40
2019-05-02T20:46:22.416Z,51.40
2019-05-02T20:48:53.729Z,51.40
2019-05-02T20:51:25.051Z,51.40
2019-05-02T20:53:54.736Z,51.40
2019-05-02T20:56:24.396Z,51.30
2019-05-02T20:58:54.186Z,51.40
2019-05-02T21:01:23.864Z,51.40
2019-05-02T21:03:53.679Z,51.30
2019-05-02T21:06:44.026Z,51.40
2019-05-02T21:09:35.675Z,52.10
2019-05-02T21:12:07.319Z,51.40
2019-05-02T21:14:37.218Z,52.10
2019-05-02T21:17:07.005Z,51.50
2019-05-02T21:19:36.791Z,51.40
2019-05-02T21:22:12.392Z,51.40
2019-05-02T21:24:42.244Z,51.50
2019-05-02T21:27:11.912Z,52.00
2019-05-02T21:29:42.557Z,51.40
2019-05-02T21:32:12.478Z,51.40
2019-05-02T21:34:42.560Z,51.40
2019-05-02T21:37:13.104Z,51.30
2019-05-02T21:39:44.426Z,51.40
2019-05-02T21:42:14.094Z,51.30
2019-05-02T21:44:45.475Z,51.40
2019-05-02T21:47:15.232Z,51.30
2019-05-02T21:50:04.035Z,51.30
2019-05-02T21:52:59.216Z,51.40
2019-05-02T21:55:39.403Z,51.40
2019-05-02T21:58:09.424Z,51.40
2019-05-02T22:00:56.243Z,51.40
2019-05-02T22:03:27.521Z,51.40
2019-05-02T22:05:57.261Z,51.50
2019-05-02T22:08:27.048Z,51.40
2019-05-02T22:10:56.814Z,51.40
2019-05-02T22:13:26.512Z,51.30
2019-05-02T22:15:56.715Z,51.40
2019-05-02T22:18:26.439Z,51.40
2019-05-02T22:20:58.074Z,52.00
2019-05-02T22:23:27.788Z,51.40
2019-05-02T22:25:57.643Z,51.40
2019-05-02T22:28:27.442Z,51.30
2019-05-02T22:30:57.505Z,51.30
2019-05-02T22:33:27.264Z,51.40
2019-05-02T22:35:56.970Z,51.30
2019-05-02T22:38:36.709Z,51.40
2019-05-02T22:41:06.421Z,51.30
2019-05-02T22:43:36.191Z,52.00
2019-05-02T22:46:07.880Z,51.30
2019-05-02T22:48:37.745Z,51.30
2019-05-02T22:51:07.617Z,51.20
2019-05-02T22:53:37.387Z,51.30
2019-05-02T22:56:07.109Z,50.80
2019-05-02T22:58:36.959Z,51.30
2019-05-02T23:01:07.539Z,51.20
2019-05-02T23:03:37.457Z,51.30
2019-05-02T23:06:07.515Z,51.30
2019-05-02T23:08:37.595Z,51.30
2019-05-02T23:11:07.481Z,51.30
2019-05-02T23:13:37.499Z,51.00
2019-05-02T23:16:07.275Z,51.30
2019-05-02T23:18:37.060Z,51.30
2019-05-02T23:21:06.936Z,51.20
2019-05-02T23:23:36.799Z,51.30
2019-05-02T23:26:13.423Z,51.30
2019-05-02T23:28:45.920Z,51.30
2019-05-02T23:31:15.742Z,51.30
2019-05-02T23:34:02.049Z,51.20
2019-05-02T23:36:32.625Z,51.20
2019-05-02T23:39:04.734Z,51.20
2019-05-02T23:41:34.771Z,51.30
2019-05-02T23:44:04.760Z,51.30
2019-05-02T23:46:34.648Z,51.20
2019-05-02T23:49:04.439Z,51.20
2019-05-02T23:51:34.202Z,51.20
2019-05-02T23:54:03.970Z,51.20
2019-05-02T23:56:33.792Z,51.30
2019-05-02T23:59:03.628Z,51.30
